Time;durP1;ratioP1;P1;durP2;ratioP2;P2;SDS_P1;SDS_P2;PMS_P1;PMS_P2;Temp;Humidity;BMP_temperature;BMP_pressure;BME280_temperature;BME280_humidity;BME280_pressure;Samples;Min_cycle;Max_cycle;Signal;HPM_P1;HPM_P2
2024/01/27 00:00:45;;;;;;;10.73;5.65;;;22.60;32.20;;;;;;5054374;28;20215;-57
2024/01/27 00:03:12;;;;;;;8.02;5.45;;;22.50;32.10;;;;;;5054161;28;20219;-59
2024/01/27 00:05:39;;;;;;;9.45;5.97;;;22.60;32.90;;;;;;5054720;28;20672;-58
2024/01/27 00:08:08;;;;;;;11.73;5.63;;;22.60;32.20;;;;;;5054472;28;20211;-57
2024/01/27 00:10:35;;;;;;;9.75;5.47;;;22.60;32.70;;;;;;5054078;28;20219;-60
2024/01/27 00:13:02;;;;;;;8.88;5.78;;;22.60;32.00;;;;;;5054452;28;20187;-58
2024/01/27 00:15:29;;;;;;;7.35;5.43;;;22.60;32.00;;;;;;5054149;28;20269;-57
2024/01/27 00:17:56;;;;;;;12.13;6.20;;;22.70;32.00;;;;;;5054025;28;20195;-58
2024/01/27 00:20:23;;;;;;;8.80;5.80;;;22.60;31.90;;;;;;5054313;28;20315;-59
2024/01/27 00:22:50;;;;;;;10.82;6.47;;;22.70;32.00;;;;;;5053916;28;20677;-56
2024/01/27 00:25:18;;;;;;;9.45;5.90;;;22.70;32.00;;;;;;5053759;28;20309;-57
2024/01/27 00:27:45;;;;;;;11.38;6.07;;;22.70;32.00;;;;;;5054299;28;20194;-58
2024/01/27 00:30:12;;;;;;;10.68;6.18;;;22.70;31.90;;;;;;5054209;28;20273;-57
2024/01/27 00:32:39;;;;;;;9.70;5.72;;;22.70;31.80;;;;;;5053776;28;20192;-55
2024/01/27 00:35:08;;;;;;;10.80;6.97;;;22.70;31.70;;;;;;5054099;28;20302;-57
2024/01/27 00:37:35;;;;;;;9.95;6.03;;;22.70;31.60;;;;;;5053981;28;20198;-57
2024/01/27 00:40:02;;;;;;;9.43;6.00;;;22.80;31.60;;;;;;5053596;28;20318;-59
2024/01/27 00:42:30;;;;;;;11.77;6.57;;;22.80;31.60;;;;;;5053901;28;20191;-57
2024/01/27 00:44:57;;;;;;;9.27;6.20;;;22.80;31.60;;;;;;5053668;28;20235;-58
2024/01/27 00:47:24;;;;;;;11.63;6.45;;;22.80;31.60;;;;;;5053162;28;20194;-58
2024/01/27 00:49:50;;;;;;;9.43;6.15;;;22.70;31.50;;;;;;5053683;28;20222;-57
2024/01/27 00:52:17;;;;;;;9.32;5.57;;;22.60;32.20;;;;;;5053684;28;20266;-57
2024/01/27 00:54:44;;;;;;;11.48;6.57;;;22.60;31.60;;;;;;5052918;28;20709;-56
2024/01/27 00:57:11;;;;;;;12.15;6.55;;;22.60;31.60;;;;;;5053559;28;20198;-55
2024/01/27 00:59:40;;;;;;;9.52;5.95;;;22.60;31.60;;;;;;5053445;28;20238;-57
2024/01/27 01:02:08;;;;;;;9.20;5.72;;;22.50;31.60;;;;;;5053167;28;20195;-57
2024/01/27 01:04:35;;;;;;;9.55;6.07;;;22.60;31.70;;;;;;5053370;28;20306;-58
2024/01/27 01:07:02;;;;;;;10.20;6.32;;;22.50;31.60;;;;;;5053130;28;20282;-57
2024/01/27 01:09:29;;;;;;;9.93;6.38;;;22.50;31.50;;;;;;5052958;28;20192;-59
2024/01/27 01:11:55;;;;;;;11.52;6.40;;;22.50;31.50;;;;;;5053051;28;20283;-57
2024/01/27 01:14:22;;;;;;;11.45;6.10;;;22.50;31.50;;;;;;5053191;28;20231;-59
2024/01/27 01:16:51;;;;;;;11.68;6.28;;;22.50;31.50;;;;;;5052627;28;20743;-57
2024/01/27 01:19:17;;;;;;;8.65;5.70;;;22.50;31.30;;;;;;5052999;28;20242;-57
2024/01/27 01:21:44;;;;;;;8.40;5.93;;;22.60;31.40;;;;;;5053289;28;20311;-58
2024/01/27 01:24:11;;;;;;;8.13;5.70;;;22.60;31.40;;;;;;5052637;28;20307;-58
2024/01/27 01:26:38;;;;;;;11.57;6.72;;;22.60;31.40;;;;;;5053262;28;20254;-58
2024/01/27 01:29:05;;;;;;;11.77;6.60;;;22.60;31.40;;;;;;5053289;28;20188;-54
2024/01/27 01:31:32;;;;;;;9.95;6.20;;;22.60;31.30;;;;;;5052563;28;20636;-57
2024/01/27 01:34:00;;;;;;;10.82;6.45;;;22.60;31.30;;;;;;5052605;28;20194;-56
2024/01/27 01:36:27;;;;;;;10.02;5.22;;;22.60;31.30;;;;;;5053141;28;20247;-58
2024/01/27 01:38:54;;;;;;;8.60;5.32;;;22.60;31.30;;;;;;5052162;28;20654;-58
2024/01/27 01:41:20;;;;;;;10.10;5.70;;;22.60;31.10;;;;;;5052639;28;20250;-59
2024/01/27 01:43:47;;;;;;;11.68;6.10;;;22.70;31.10;;;;;;5052663;28;20306;-53
2024/01/27 01:46:14;;;;;;;10.00;5.97;;;22.70;31.10;;;;;;5052503;28;20211;-58
2024/01/27 01:48:41;;;;;;;7.55;5.07;;;22.70;31.00;;;;;;5052697;28;20625;-58
2024/01/27 01:51:10;;;;;;;10.73;6.18;;;22.70;31.00;;;;;;5052680;28;20298;-55
2024/01/27 01:53:37;;;;;;;8.35;5.20;;;22.70;30.90;;;;;;5052163;28;20198;-58
2024/01/27 01:56:05;;;;;;;10.32;5.97;;;22.70;30.90;;;;;;5052490;28;20303;-57
2024/01/27 01:58:34;;;;;;;12.18;6.07;;;22.70;31.00;;;;;;5051933;28;20199;-56
2024/01/27 02:01:01;;;;;;;9.95;5.35;;;22.60;31.00;;;;;;5052261;28;20222;-58
2024/01/27 02:03:27;;;;;;;7.70;5.00;;;22.60;31.00;;;;;;5052377;28;20278;-58
2024/01/27 02:05:55;;;;;;;9.48;5.70;;;22.60;31.00;;;;;;5052584;28;20333;-59
2024/01/27 02:08:24;;;;;;;7.93;5.28;;;22.50;30.90;;;;;;5051990;28;20187;-56
2024/01/27 02:10:51;;;;;;;8.55;5.63;;;22.50;31.00;;;;;;5052133;28;20218;-58
2024/01/27 02:13:19;;;;;;;12.55;5.80;;;22.50;31.00;;;;;;5052338;28;20199;-59
2024/01/27 02:15:46;;;;;;;7.97;5.32;;;22.50;31.00;;;;;;5051804;28;20231;-59
2024/01/27 02:18:13;;;;;;;13.32;5.93;;;22.50;30.90;;;;;;5052573;28;20286;-57
2024/01/27 02:20:40;;;;;;;9.45;5.45;;;22.50;30.90;;;;;;5052341;28;20605;-57
2024/01/27 02:23:07;;;;;;;9.18;5.60;;;22.50;31.00;;;;;;5051604;28;20188;-58
2024/01/27 02:25:36;;;;;;;8.70;5.80;;;22.50;30.80;;;;;;5052260;28;20238;-58
2024/01/27 02:28:03;;;;;;;8.95;5.88;;;22.50;30.80;;;;;;5052251;28;20192;-55
2024/01/27 02:30:30;;;;;;;9.45;5.70;;;22.50;30.80;;;;;;5051597;28;20218;-58
2024/01/27 02:32:58;;;;;;;8.88;5.55;;;22.50;30.80;;;;;;5051916;28;20733;-58
2024/01/27 02:35:25;;;;;;;9.40;5.80;;;22.60;30.90;;;;;;5052107;28;20219;-56
2024/01/27 02:37:51;;;;;;;9.60;6.25;;;22.50;30.80;;;;;;5051553;28;20563;-59
2024/01/27 02:40:18;;;;;;;9.23;5.50;;;22.60;30.80;;;;;;5052088;28;20310;-59
2024/01/27 02:42:47;;;;;;;9.70;5.95;;;22.60;30.80;;;;;;5050438;28;20192;-57
2024/01/27 02:45:14;;;;;;;11.52;6.20;;;22.60;30.80;;;;;;5056834;28;20230;-57
2024/01/27 02:47:41;;;;;;;14.23;6.32;;;22.60;30.80;;;;;;5072033;28;20642;-56
2024/01/27 02:50:08;;;;;;;10.48;6.45;;;22.60;30.60;;;;;;5072012;28;20301;-58
2024/01/27 02:52:35;;;;;;;9.75;6.45;;;22.60;30.60;;;;;;5071610;28;20286;-58
2024/01/27 02:55:02;;;;;;;9.13;5.95;;;22.60;31.10;;;;;;5071540;28;20583;-58
2024/01/27 02:57:28;;;;;;;9.95;6.35;;;22.60;30.50;;;;;;5072032;28;20274;-58
2024/01/27 02:59:57;;;;;;;10.52;5.97;;;22.70;30.50;;;;;;5071481;28;20780;-57
2024/01/27 03:02:23;;;;;;;9.27;6.10;;;22.70;30.40;;;;;;5071969;28;20209;-56
2024/01/27 03:04:50;;;;;;;12.43;6.40;;;22.60;30.30;;;;;;5071816;28;20218;-58
2024/01/27 03:07:17;;;;;;;9.85;6.38;;;22.60;30.30;;;;;;5071544;28;20202;-57
2024/01/27 03:09:44;;;;;;;10.38;6.63;;;22.60;30.40;;;;;;5073772;28;20273;-59
2024/01/27 03:12:11;;;;;;;10.90;6.80;;;22.50;30.40;;;;;;5075645;28;20214;-56
2024/01/27 03:14:38;;;;;;;8.45;5.82;;;22.50;30.40;;;;;;5074847;28;20683;-58
2024/01/27 03:17:07;;;;;;;11.73;6.13;;;22.50;30.40;;;;;;5075344;28;20256;-58
2024/01/27 03:19:33;;;;;;;10.02;6.20;;;22.50;30.40;;;;;;5075548;28;20217;-58
2024/01/27 03:22:00;;;;;;;9.45;5.90;;;22.50;30.50;;;;;;5075075;28;20277;-56
2024/01/27 03:24:27;;;;;;;10.68;6.13;;;22.50;30.50;;;;;;5075202;28;20221;-58
2024/01/27 03:26:54;;;;;;;11.50;6.28;;;22.50;30.40;;;;;;5075314;28;20309;-55
2024/01/27 03:29:21;;;;;;;8.23;5.15;;;22.40;30.30;;;;;;5074650;28;20675;-57
2024/01/27 03:31:49;;;;;;;10.43;5.93;;;22.50;30.30;;;;;;5075017;28;20477;-59
2024/01/27 03:34:19;;;;;;;9.25;6.38;;;22.40;30.20;;;;;;5074961;28;20199;-57
2024/01/27 03:36:49;;;;;;;9.38;5.63;;;22.40;30.20;;;;;;5074699;28;20221;-58
2024/01/27 03:39:16;;;;;;;8.13;5.72;;;22.50;30.40;;;;;;5075018;28;20183;-58
2024/01/27 03:41:43;;;;;;;10.32;5.78;;;22.50;30.40;;;;;;5075025;28;20215;-57
2024/01/27 03:44:09;;;;;;;8.45;5.60;;;22.50;31.00;;;;;;5074296;28;20643;-56
2024/01/27 03:46:38;;;;;;;8.40;5.05;;;22.40;30.30;;;;;;5075127;28;20246;-57
2024/01/27 03:49:05;;;;;;;8.25;5.10;;;22.40;30.20;;;;;;5074895;28;20194;-56
2024/01/27 03:51:33;;;;;;;9.13;4.90;;;22.50;30.30;;;;;;5074331;28;20719;-57
2024/01/27 03:54:00;;;;;;;7.85;5.22;;;22.50;30.20;;;;;;5074519;28;20669;-57
2024/01/27 03:56:27;;;;;;;10.52;5.40;;;22.50;30.20;;;;;;5074452;28;20699;-57
2024/01/27 03:58:54;;;;;;;8.63;4.78;;;22.50;30.10;;;;;;5074414;28;20278;-58
2024/01/27 04:01:21;;;;;;;9.32;5.53;;;22.50;30.00;;;;;;5074702;28;20227;-59
2024/01/27 04:03:48;;;;;;;8.05;4.88;;;22.50;30.00;;;;;;5074660;28;20221;-55
2024/01/27 04:06:14;;;;;;;7.50;4.93;;;22.60;30.00;;;;;;5074154;28;20618;-59
2024/01/27 04:08:44;;;;;;;8.90;5.05;;;22.60;30.00;;;;;;5074439;28;20220;-56
2024/01/27 04:11:21;;;;;;;8.90;4.95;;;22.60;30.00;;;;;;5074286;28;20221;-58
2024/01/27 04:13:49;;;;;;;9.30;4.75;;;22.60;30.00;;;;;;5074130;28;20195;-58
2024/01/27 04:16:16;;;;;;;7.32;4.50;;;22.50;30.00;;;;;;5073942;28;20688;-58
2024/01/27 04:18:43;;;;;;;8.88;4.72;;;22.50;30.00;;;;;;5074318;28;20230;-55
2024/01/27 04:21:10;;;;;;;7.43;4.38;;;22.50;30.00;;;;;;5073413;28;20210;-56
2024/01/27 04:23:36;;;;;;;7.68;4.90;;;22.40;30.00;;;;;;5074476;28;20197;-59
2024/01/27 04:26:06;;;;;;;8.68;4.93;;;22.50;30.00;;;;;;5074235;28;20237;-57
2024/01/27 04:28:33;;;;;;;7.78;5.15;;;22.40;30.00;;;;;;5073536;28;20193;-58
2024/01/27 04:31:00;;;;;;;8.02;4.63;;;22.40;30.00;;;;;;5073822;28;20218;-58
2024/01/27 04:33:26;;;;;;;9.40;4.95;;;22.40;30.00;;;;;;5074381;28;20201;-55
2024/01/27 04:35:53;;;;;;;9.57;4.60;;;22.40;30.00;;;;;;5073738;28;20305;-59
2024/01/27 04:38:20;;;;;;;7.80;4.45;;;22.40;30.00;;;;;;5074018;28;20337;-56
2024/01/27 04:40:47;;;;;;;8.50;4.95;;;22.40;30.00;;;;;;5073916;28;20210;-59
2024/01/27 04:43:17;;;;;;;8.30;4.40;;;22.40;30.00;;;;;;5073646;28;20274;-59
2024/01/27 04:45:45;;;;;;;7.90;4.13;;;22.50;30.10;;;;;;5073746;28;20240;-58
2024/01/27 04:48:11;;;;;;;5.32;3.70;;;22.40;30.00;;;;;;5073797;28;20272;-56
2024/01/27 04:50:38;;;;;;;9.57;4.07;;;22.40;30.00;;;;;;5073130;28;20651;-59
2024/01/27 04:53:05;;;;;;;6.70;3.47;;;22.50;30.10;;;;;;5073540;28;20193;-57
2024/01/27 04:55:32;;;;;;;6.72;4.13;;;22.50;30.10;;;;;;5073478;28;20692;-59
2024/01/27 04:57:59;;;;;;;5.72;3.65;;;22.50;30.10;;;;;;5073418;28;20191;-58
2024/01/27 05:00:28;;;;;;;5.75;3.92;;;22.50;30.00;;;;;;5073217;28;20227;-57
2024/01/27 05:02:55;;;;;;;7.55;4.18;;;22.50;30.00;;;;;;5073444;28;20191;-56
2024/01/27 05:05:22;;;;;;;7.85;4.20;;;22.50;30.00;;;;;;5073015;28;20230;-57
2024/01/27 05:07:49;;;;;;;6.68;4.32;;;22.50;29.90;;;;;;5073103;28;20320;-58
2024/01/27 05:10:17;;;;;;;7.68;4.13;;;22.60;29.90;;;;;;5073319;28;20218;-58
2024/01/27 05:12:43;;;;;;;7.55;3.95;;;22.60;29.90;;;;;;5073351;28;20240;-57
2024/01/27 05:15:11;;;;;;;9.98;4.30;;;22.60;29.80;;;;;;5073201;28;20301;-57
2024/01/27 05:17:40;;;;;;;6.13;3.92;;;22.60;29.80;;;;;;5072772;28;20224;-59
2024/01/27 05:20:08;;;;;;;6.32;3.72;;;22.60;29.80;;;;;;5073202;28;20222;-58
2024/01/27 05:22:35;;;;;;;9.77;4.10;;;22.60;29.80;;;;;;5072818;28;20274;-59
2024/01/27 05:25:03;;;;;;;7.18;3.72;;;22.50;29.80;;;;;;5072846;28;20225;-58
2024/01/27 05:27:29;;;;;;;6.13;3.75;;;22.50;29.90;;;;;;5073026;28;20291;-58
2024/01/27 05:29:56;;;;;;;8.50;3.95;;;22.50;29.90;;;;;;5072237;28;20191;-59
2024/01/27 05:32:23;;;;;;;6.90;3.80;;;22.40;29.90;;;;;;5072293;28;20298;-58
2024/01/27 05:34:51;;;;;;;7.13;3.33;;;22.40;29.90;;;;;;5072758;28;20286;-58
2024/01/27 05:37:18;;;;;;;5.75;3.80;;;22.40;29.90;;;;;;5072557;28;20277;-55
2024/01/27 05:39:45;;;;;;;7.80;4.05;;;22.40;29.90;;;;;;5068270;28;20583;-59
2024/01/27 05:42:12;;;;;;;5.32;3.22;;;22.40;29.90;;;;;;5061431;28;20266;-56
2024/01/27 05:44:40;;;;;;;9.75;3.90;;;22.40;29.90;;;;;;5064361;28;20198;-56
2024/01/27 05:47:07;;;;;;;6.53;3.03;;;22.40;29.90;;;;;;5072822;28;20218;-57
2024/01/27 05:49:34;;;;;;;8.07;3.33;;;22.40;29.90;;;;;;5054837;28;20229;-58
2024/01/27 05:52:02;;;;;;;7.75;3.30;;;22.40;29.90;;;;;;5051927;28;20659;-58
2024/01/27 05:54:29;;;;;;;7.47;3.20;;;22.40;29.90;;;;;;5052553;28;20256;-57
2024/01/27 05:56:56;;;;;;;5.40;3.25;;;22.40;29.90;;;;;;5052509;28;20233;-56
2024/01/27 05:59:23;;;;;;;5.80;3.50;;;22.40;29.90;;;;;;5052186;28;20587;-58
2024/01/27 06:01:49;;;;;;;5.85;3.38;;;22.40;29.90;;;;;;5052758;28;20226;-58
2024/01/27 06:04:16;;;;;;;9.13;3.50;;;22.40;29.90;;;;;;5052532;28;20188;-59
2024/01/27 06:06:43;;;;;;;8.38;3.80;;;22.40;29.90;;;;;;5052125;28;20237;-59
2024/01/27 06:09:11;;;;;;;6.13;3.20;;;22.40;29.80;;;;;;5052102;28;20567;-59
2024/01/27 06:11:38;;;;;;;9.18;3.30;;;22.50;29.80;;;;;;5052593;28;20222;-57
2024/01/27 06:14:06;;;;;;;7.53;3.50;;;22.50;29.80;;;;;;5052042;28;20537;-57
2024/01/27 06:16:35;;;;;;;7.97;3.70;;;22.50;29.60;;;;;;5052103;28;20318;-59
2024/01/27 06:19:02;;;;;;;6.47;3.50;;;22.60;29.70;;;;;;5052172;28;20199;-58
2024/01/27 06:21:28;;;;;;;5.07;2.97;;;22.60;29.60;;;;;;5052062;28;20310;-58
2024/01/27 06:23:55;;;;;;;6.50;3.63;;;22.60;29.50;;;;;;5052233;28;20274;-58
2024/01/27 06:26:24;;;;;;;7.18;2.80;;;22.60;29.50;;;;;;5052348;28;20241;-58
2024/01/27 06:28:50;;;;;;;7.13;3.17;;;22.60;29.60;;;;;;5051859;28;20198;-58
2024/01/27 06:31:17;;;;;;;6.25;3.35;;;22.50;29.60;;;;;;5052292;28;20683;-55
2024/01/27 06:33:44;;;;;;;6.93;3.20;;;22.50;29.70;;;;;;5051878;28;20187;-57
2024/01/27 06:36:11;;;;;;;4.95;2.55;;;22.40;29.70;;;;;;5051899;28;20223;-56
2024/01/27 06:38:38;;;;;;;8.25;3.45;;;22.40;29.70;;;;;;5051781;28;20667;-59
2024/01/27 06:41:05;;;;;;;4.97;3.03;;;22.40;29.80;;;;;;5052145;28;20461;-58
2024/01/27 06:43:33;;;;;;;7.97;3.03;;;22.30;29.70;;;;;;5053212;28;20645;-58
2024/01/27 06:46:00;;;;;;;7.38;3.17;;;22.40;29.80;;;;;;5056115;28;20603;-59
2024/01/27 06:48:27;;;;;;;5.93;2.67;;;22.30;29.80;;;;;;5056035;28;20568;-59
2024/01/27 06:50:54;;;;;;;6.82;2.78;;;22.40;29.80;;;;;;5055679;28;20580;-56
2024/01/27 06:53:21;;;;;;;6.30;2.80;;;22.40;29.80;;;;;;5056092;28;20192;-56
2024/01/27 06:55:48;;;;;;;5.10;2.80;;;22.40;29.80;;;;;;5055792;28;20219;-57
2024/01/27 06:58:14;;;;;;;6.40;3.00;;;22.40;29.80;;;;;;5055589;28;20192;-58
2024/01/27 07:00:44;;;;;;;6.65;2.80;;;22.40;29.90;;;;;;5055814;28;20302;-54
2024/01/27 07:03:11;;;;;;;4.50;2.60;;;22.40;29.90;;;;;;5055827;28;20612;-58
2024/01/27 07:05:40;;;;;;;6.35;2.72;;;22.40;29.90;;;;;;5055314;28;20238;-58
2024/01/27 07:08:08;;;;;;;7.00;2.90;;;22.40;29.80;;;;;;5055674;28;20218;-58
2024/01/27 07:10:35;;;;;;;9.52;2.75;;;22.40;29.80;;;;;;5055654;28;20301;-58
2024/01/27 07:13:02;;;;;;;6.22;2.65;;;22.40;29.80;;;;;;5055221;28;20187;-55
2024/01/27 07:15:29;;;;;;;6.93;2.60;;;22.40;29.80;;;;;;5055050;28;20660;-57
2024/01/27 07:17:58;;;;;;;5.65;2.47;;;22.50;29.80;;;;;;5055158;28;20191;-56
2024/01/27 07:20:25;;;;;;;3.50;2.30;;;22.50;29.70;;;;;;5054692;28;20868;-58
2024/01/27 07:22:52;;;;;;;5.28;2.60;;;22.50;29.60;;;;;;5055267;28;20196;-58
2024/01/27 07:25:19;;;;;;;7.70;2.75;;;22.60;29.60;;;;;;5055302;28;20287;-58
2024/01/27 07:27:46;;;;;;;8.75;3.42;;;22.60;29.60;;;;;;5055028;28;20194;-58
2024/01/27 07:30:13;;;;;;;4.78;2.60;;;22.60;29.50;;;;;;5054904;28;20677;-56
2024/01/27 07:32:40;;;;;;;7.00;2.85;;;22.60;29.40;;;;;;5055255;28;20190;-58
2024/01/27 07:35:09;;;;;;;6.55;2.50;;;22.60;29.50;;;;;;5054813;28;20188;-59
2024/01/27 07:37:36;;;;;;;5.55;3.10;;;22.50;29.50;;;;;;5054895;28;20278;-58
2024/01/27 07:40:03;;;;;;;7.22;2.80;;;22.50;29.50;;;;;;5054976;28;20192;-58
2024/01/27 07:42:30;;;;;;;5.30;2.85;;;22.40;30.00;;;;;;5054758;28;20210;-50
2024/01/27 07:44:57;;;;;;;7.68;3.13;;;22.40;29.60;;;;;;5054739;28;20184;-58
2024/01/27 07:47:24;;;;;;;6.60;2.70;;;22.40;29.60;;;;;;5054885;28;20238;-57
2024/01/27 07:49:51;;;;;;;4.88;2.78;;;22.40;29.70;;;;;;5054543;28;20192;-58
2024/01/27 07:52:19;;;;;;;3.60;1.92;;;22.40;29.70;;;;;;5055133;28;20219;-58
2024/01/27 07:54:46;;;;;;;7.00;2.85;;;22.30;29.70;;;;;;5054131;28;20274;-57
2024/01/27 07:57:13;;;;;;;5.05;2.63;;;22.30;29.60;;;;;;5054651;28;20220;-57
2024/01/27 07:59:40;;;;;;;4.72;2.70;;;22.40;29.70;;;;;;5054387;28;20578;-58
2024/01/27 08:02:07;;;;;;;5.20;2.60;;;22.40;29.70;;;;;;5054686;28;20226;-55
2024/01/27 08:04:34;;;;;;;6.38;3.10;;;22.40;29.70;;;;;;5054085;28;20251;-59
2024/01/27 08:07:05;;;;;;;7.60;3.00;;;22.40;29.70;;;;;;5054640;28;20237;-58
2024/01/27 08:09:34;;;;;;;8.15;3.30;;;22.40;29.70;;;;;;5054271;28;20200;-59
2024/01/27 08:12:01;;;;;;;7.65;3.35;;;22.40;29.70;;;;;;5054345;28;20302;-57
2024/01/27 08:14:29;;;;;;;6.55;3.42;;;22.40;29.70;;;;;;5054516;28;20200;-58
2024/01/27 08:16:56;;;;;;;5.75;3.10;;;22.40;29.60;;;;;;5054197;28;20239;-58
2024/01/27 08:19:24;;;;;;;6.45;3.00;;;22.40;29.60;;;;;;5053971;28;20219;-57
2024/01/27 08:21:51;;;;;;;6.05;3.03;;;22.40;29.50;;;;;;5054125;28;20711;-58
2024/01/27 08:24:18;;;;;;;8.65;3.20;;;22.50;29.50;;;;;;5053978;28;20686;-59
2024/01/27 08:26:48;;;;;;;6.35;3.38;;;22.50;29.40;;;;;;5053725;28;20703;-58
2024/01/27 08:29:15;;;;;;;6.55;2.78;;;22.50;29.40;;;;;;5054714;28;20599;-55
2024/01/27 08:31:41;;;;;;;6.28;2.83;;;22.50;29.30;;;;;;5054112;28;20220;-55
2024/01/27 08:34:08;;;;;;;5.05;2.97;;;22.50;29.20;;;;;;5053731;28;20192;-59
2024/01/27 08:36:37;;;;;;;6.57;3.10;;;22.60;29.30;;;;;;5054268;28;20222;-57
2024/01/27 08:39:04;;;;;;;7.75;3.67;;;22.60;29.20;;;;;;5053627;28;20672;-57
2024/01/27 08:41:31;;;;;;;7.28;3.33;;;22.50;29.20;;;;;;5053670;28;20220;-59
2024/01/27 08:43:59;;;;;;;6.32;3.08;;;22.50;29.30;;;;;;5053601;28;20274;-58
2024/01/27 08:46:26;;;;;;;6.05;3.38;;;22.40;29.30;;;;;;5053559;28;20237;-58
2024/01/27 08:48:53;;;;;;;7.18;3.22;;;22.40;29.40;;;;;;5053131;28;20640;-56
2024/01/27 08:51:19;;;;;;;9.85;3.40;;;22.40;29.40;;;;;;5053499;28;20251;-57
2024/01/27 08:53:48;;;;;;;8.73;3.60;;;22.30;29.40;;;;;;5053705;28;20276;-56
2024/01/27 08:56:15;;;;;;;6.25;3.03;;;22.30;29.50;;;;;;5053087;28;20219;-59
2024/01/27 08:58:43;;;;;;;6.75;3.25;;;22.30;29.50;;;;;;5053538;28;20627;-58
2024/01/27 09:01:14;;;;;;;6.47;3.67;;;22.30;29.40;;;;;;5053637;28;20215;-57
2024/01/27 09:03:41;;;;;;;8.50;4.05;;;22.30;29.40;;;;;;5052870;28;20191;-55
2024/01/27 09:06:08;;;;;;;6.25;3.47;;;22.30;29.40;;;;;;5052791;28;20438;-56
2024/01/27 09:08:35;;;;;;;7.68;3.80;;;22.30;29.40;;;;;;5052943;28;20192;-58
2024/01/27 09:11:02;;;;;;;6.13;3.17;;;22.30;29.40;;;;;;5052941;28;20212;-57
2024/01/27 09:13:29;;;;;;;6.82;3.35;;;22.30;29.50;;;;;;5053328;28;20192;-55
2024/01/27 09:15:57;;;;;;;10.15;3.88;;;22.40;29.50;;;;;;5052926;28;20231;-58
2024/01/27 09:18:26;;;;;;;7.60;3.47;;;22.30;29.50;;;;;;5053119;28;20278;-56
2024/01/27 09:20:53;;;;;;;7.35;3.78;;;22.40;29.50;;;;;;5052971;28;20879;-57
2024/01/27 09:23:19;;;;;;;5.78;3.55;;;22.40;29.40;;;;;;5052765;28;20192;-56
2024/01/27 09:25:46;;;;;;;6.43;3.40;;;22.40;29.40;;;;;;5052741;28;20215;-58
2024/01/27 09:28:14;;;;;;;7.00;3.88;;;22.40;29.40;;;;;;5053086;28;20188;-58
2024/01/27 09:30:41;;;;;;;8.40;3.40;;;22.50;29.40;;;;;;5053001;28;20219;-55
2024/01/27 09:33:08;;;;;;;5.28;3.08;;;22.50;29.30;;;;;;5052611;28;20183;-58
2024/01/27 09:35:36;;;;;;;6.13;2.97;;;22.50;29.30;;;;;;5052967;28;20225;-59
2024/01/27 09:38:03;;;;;;;6.05;3.20;;;22.50;29.20;;;;;;5052769;28;20188;-59
2024/01/27 09:40:30;;;;;;;7.97;3.38;;;22.50;29.20;;;;;;5052315;28;20195;-58
2024/01/27 09:43:00;;;;;;;8.23;2.90;;;22.50;29.10;;;;;;5052464;28;20576;-58
2024/01/27 09:45:27;;;;;;;5.93;3.00;;;22.50;29.60;;;;;;5052369;28;20191;-59
2024/01/27 09:47:59;;;;;;;6.10;3.25;;;22.50;29.20;;;;;;5052402;28;20225;-56
2024/01/27 09:50:26;;;;;;;6.10;3.05;;;22.50;29.30;;;;;;5052358;28;20562;-55
2024/01/27 09:52:54;;;;;;;6.82;2.97;;;22.40;29.30;;;;;;5052929;28;20187;-57
2024/01/27 09:55:21;;;;;;;5.97;2.75;;;22.40;29.40;;;;;;5051839;28;20207;-58
2024/01/27 09:57:49;;;;;;;9.52;3.20;;;22.30;29.40;;;;;;5052464;28;20191;-57
2024/01/27 10:00:17;;;;;;;4.63;2.55;;;22.30;29.40;;;;;;5052180;28;20283;-59
2024/01/27 10:02:46;;;;;;;5.18;2.55;;;22.30;29.50;;;;;;5051875;28;20184;-57
2024/01/27 10:05:14;;;;;;;5.85;2.72;;;22.30;29.50;;;;;;5052226;28;20672;-58
2024/01/27 10:07:41;;;;;;;6.15;2.78;;;22.30;29.50;;;;;;5052368;28;20297;-58
2024/01/27 10:10:10;;;;;;;5.45;2.80;;;22.30;29.50;;;;;;5052068;28;20275;-57
2024/01/27 10:12:40;;;;;;;5.53;2.80;;;22.30;29.50;;;;;;5052062;28;20289;-56
2024/01/27 10:15:08;;;;;;;6.18;2.80;;;22.30;29.50;;;;;;5052334;28;20620;-56
2024/01/27 10:17:37;;;;;;;6.97;2.72;;;22.30;29.50;;;;;;5051222;28;20322;-57
2024/01/27 10:20:07;;;;;;;6.80;2.53;;;22.30;29.50;;;;;;5051928;28;20191;-56
2024/01/27 10:22:41;;;;;;;6.03;2.92;;;22.40;29.50;;;;;;5052277;28;20693;-59
2024/01/27 10:25:10;;;;;;;5.25;2.67;;;22.40;29.50;;;;;;5051862;28;20187;-57
2024/01/27 10:27:37;;;;;;;4.68;2.28;;;22.40;29.50;;;;;;5051906;28;20704;-58
2024/01/27 10:30:04;;;;;;;6.78;2.63;;;22.50;29.50;;;;;;5052241;28;20192;-54
2024/01/27 10:32:31;;;;;;;6.38;2.50;;;22.50;29.50;;;;;;5051451;28;20705;-58
2024/01/27 10:35:05;;;;;;;6.43;2.65;;;22.40;29.40;;;;;;5051921;28;20755;-57
2024/01/27 10:37:32;;;;;;;4.05;2.03;;;22.50;29.50;;;;;;5052354;28;20310;-58
2024/01/27 10:40:03;;;;;;;4.60;2.33;;;22.50;29.40;;;;;;5051658;28;20279;-58
2024/01/27 10:42:32;;;;;;;5.38;2.65;;;22.50;29.40;;;;;;5052274;28;20222;-57
2024/01/27 10:45:00;;;;;;;4.85;2.72;;;22.60;29.40;;;;;;5052066;28;20278;-57
2024/01/27 10:47:29;;;;;;;6.65;2.60;;;22.50;29.20;;;;;;5051576;28;20234;-57
2024/01/27 10:49:58;;;;;;;6.47;2.72;;;22.50;29.30;;;;;;5052058;28;20188;-58
2024/01/27 10:52:28;;;;;;;4.68;2.35;;;22.50;29.30;;;;;;5052215;28;20216;-55
2024/01/27 10:54:59;;;;;;;4.43;2.38;;;22.50;29.40;;;;;;5051638;28;20188;-56
2024/01/27 10:57:27;;;;;;;6.35;2.78;;;22.40;29.40;;;;;;5051973;28;20219;-56
2024/01/27 10:59:57;;;;;;;6.10;2.85;;;22.40;29.50;;;;;;5051532;28;20228;-58
2024/01/27 11:02:24;;;;;;;4.20;2.30;;;22.30;29.40;;;;;;5051447;28;20215;-55
2024/01/27 11:04:53;;;;;;;6.95;2.53;;;22.30;29.50;;;;;;5051872;28;20198;-53
2024/01/27 11:07:22;;;;;;;8.35;2.55;;;22.30;29.50;;;;;;5051920;28;20655;-58
2024/01/27 11:09:51;;;;;;;5.95;2.42;;;22.30;29.50;;;;;;5051465;28;20196;-57
2024/01/27 11:12:19;;;;;;;5.20;2.28;;;22.30;29.50;;;;;;5051938;28;20230;-58
2024/01/27 11:14:47;;;;;;;6.57;2.60;;;22.30;29.50;;;;;;5051790;28;20188;-57
2024/01/27 11:17:15;;;;;;;4.88;2.33;;;22.40;29.60;;;;;;5050897;28;20239;-57
2024/01/27 11:19:42;;;;;;;6.03;2.40;;;22.40;29.60;;;;;;5051789;28;20199;-54
2024/01/27 11:22:09;;;;;;;6.57;2.30;;;22.40;29.60;;;;;;5051618;28;20245;-58
2024/01/27 11:24:36;;;;;;;6.57;2.60;;;22.40;30.00;;;;;;5051360;28;20262;-58
2024/01/27 11:27:04;;;;;;;5.47;2.50;;;22.40;29.50;;;;;;5051752;28;20231;-57
2024/01/27 11:29:32;;;;;;;5.10;2.50;;;22.40;29.50;;;;;;5051352;28;20725;-54
2024/01/27 11:32:02;;;;;;;5.05;2.85;;;22.50;29.60;;;;;;5054547;28;20773;-55
2024/01/27 11:34:41;;;;;;;4.97;2.10;;;22.40;29.40;;;;;;5055263;28;20286;-57
2024/01/27 11:37:12;;;;;;;4.72;2.30;;;22.50;29.50;;;;;;5055353;28;20309;-57
2024/01/27 11:39:39;;;;;;;6.55;2.47;;;22.50;29.50;;;;;;5054376;28;20188;-57
2024/01/27 11:42:07;;;;;;;6.78;2.33;;;22.50;29.40;;;;;;5054990;28;20228;-57
2024/01/27 11:44:35;;;;;;;6.25;2.25;;;22.50;29.40;;;;;;5054716;28;20278;-57
2024/01/27 11:47:02;;;;;;;7.75;2.40;;;22.50;29.40;;;;;;5054549;28;20234;-58
2024/01/27 11:49:31;;;;;;;5.03;2.40;;;22.50;29.30;;;;;;5055140;28;20195;-54
2024/01/27 11:51:58;;;;;;;7.22;2.60;;;22.50;29.30;;;;;;5054768;28;20307;-57
2024/01/27 11:54:25;;;;;;;3.83;2.17;;;22.50;29.30;;;;;;5054412;28;20198;-58
2024/01/27 11:56:52;;;;;;;5.30;2.47;;;22.50;29.40;;;;;;5054902;28;20309;-58
2024/01/27 11:59:19;;;;;;;5.95;2.50;;;22.50;29.40;;;;;;5054694;28;20198;-59
2024/01/27 12:01:46;;;;;;;5.47;2.33;;;22.40;29.40;;;;;;5054146;28;20216;-57
2024/01/27 12:04:14;;;;;;;4.72;2.42;;;22.40;29.50;;;;;;5054731;28;20188;-57
2024/01/27 12:06:42;;;;;;;8.95;2.42;;;22.40;29.60;;;;;;5054563;28;20219;-55
2024/01/27 12:09:11;;;;;;;6.40;2.30;;;22.30;29.50;;;;;;5053778;28;20593;-56
2024/01/27 12:11:41;;;;;;;4.35;2.30;;;22.30;29.60;;;;;;5054385;28;20686;-57
2024/01/27 12:14:07;;;;;;;5.25;2.50;;;22.30;29.60;;;;;;5054192;28;20191;-54
2024/01/27 12:16:35;;;;;;;5.05;2.35;;;22.40;29.70;;;;;;5053691;28;20591;-58
2024/01/27 12:19:02;;;;;;;6.63;2.78;;;22.40;29.70;;;;;;5054608;28;20337;-58
2024/01/27 12:21:29;;;;;;;5.07;2.38;;;22.40;29.70;;;;;;5054346;28;20259;-58
2024/01/27 12:23:58;;;;;;;4.10;2.08;;;22.40;29.70;;;;;;5053632;28;20198;-56
2024/01/27 12:26:27;;;;;;;7.57;2.92;;;22.40;29.70;;;;;;5054297;28;20216;-57
2024/01/27 12:28:55;;;;;;;8.18;2.47;;;22.40;29.60;;;;;;5054134;28;20219;-58
2024/01/27 12:31:24;;;;;;;3.55;2.17;;;22.40;30.10;;;;;;5053767;28;20227;-54
2024/01/27 12:33:51;;;;;;;6.68;2.60;;;22.40;29.60;;;;;;5053983;28;20191;-56
2024/01/27 12:36:19;;;;;;;4.90;2.47;;;22.50;29.70;;;;;;5053996;28;20215;-54
2024/01/27 12:38:55;;;;;;;6.18;2.40;;;22.50;29.70;;;;;;5053228;28;20651;-58
2024/01/27 12:41:23;;;;;;;6.05;2.30;;;22.50;29.60;;;;;;5053864;28;20218;-59
2024/01/27 12:43:50;;;;;;;5.53;2.75;;;22.50;29.60;;;;;;5053367;28;20206;-53
2024/01/27 12:46:17;;;;;;;6.50;2.60;;;22.50;29.60;;;;;;5070048;28;20250;-57